AirNav   Jet Aviation Boston
 
 347 users online  

7N3 Sands Point Seaplane Base
Port Washington, New York, USA

GOING TO PORT WASHINGTON?


FAA INFORMATION EFFECTIVE 24 MAY 2018

Location

FAA Identifier: 7N3
Lat/Long: 40-49-38.7000N / 073-43-01.5000W
40-49.645000N / 073-43.025000W
40.8274167 / -73.7170833
(estimated)
Elevation: 0 ft. / 0 m (estimated)
Variation: 13W (1985)
From city: 2 miles NW of PORT WASHINGTON, NY
Time zone: UTC -4 (UTC -5 during Standard Time)
Zip code: 11050

Seaplane Base Operations

Seaplane Base use: Open to the public
Activation date: 05/1948
Control tower: no
ARTCC: NEW YORK CENTER
FSS: NEW YORK FLIGHT SERVICE STATION
NOTAMs facility: ISP (NOTAM-D service available)
Attendance: APR 1-NOV 1 0800-DUSK
Segmented circle: no

Seaplane Base Communications

CTAF: 122.9
WX ASOS at LGA (8 nm SW): PHONE 718-672-6317
WX ASOS at JFK (12 nm S): PHONE 718-656-0956
WX ASOS at HPN (14 nm N): PHONE 914-288-0216
WX ASOS at FRG (15 nm SE): PHONE 631-752-8129
WX AWOS-3PT at JRB (15 nm SW): 128.175 (212-425-1534)
WX ASOS at TEB (16 nm W): PHONE 201-393-0855

Nearby radio navigation aids

VOR radial/distance  VOR name  Freq  Var
LGAr081/7.4LA GUARDIA VOR/DME113.1012W
JFKr024/11.9KENNEDY VOR/DME115.9012W
CRIr043/15.2CANARSIE VOR/DME112.3011W
TEBr106/15.7TETERBORO VOR/DME108.4011W
DPKr289/18.9DEER PARK VOR/DME117.7012W
CMKr205/27.8CARMEL VOR/DME116.6012W
BDRr245/33.5BRIDGEPORT VOR/DME108.8012W
COLr044/36.9COLTS NECK VOR/DME115.4011W
SAXr122/39.9SPARTA VORTAC115.7011W

 
NDB name  Hdg/Dist  Freq  Var  ID
FRIKK300/11.140714WFR ..-. .-.
BRIDGE038/17.341412WOGY --- --. -.--
BABYLON316/17.727514WBBN -... -... -.
CHATHAM094/32.825413WCAT -.-. .- -

Seaplane Base Services

Parking: tiedowns
Bottled oxygen: NONE
Bulk oxygen: NONE

Runway Information

Runway 1/19

Dimensions: 6000 x 300 ft. / 1829 x 91 m
Surface: water
RUNWAY 1  RUNWAY 19
Latitude: 40-49.253978N40-50.235690N
Longitude: 073-43.054278W073-42.903798W
Traffic pattern: leftleft
Runway heading: 020 magnetic, 007 true200 magnetic, 187 true
Runway end identifier lights: nono

Runway 12/30

Dimensions: 6000 x 300 ft. / 1829 x 91 m
Surface: water
RUNWAY 12  RUNWAY 30
Latitude: 40-49.807862N40-49.280417N
Longitude: 073-43.622568W073-42.522235W
Traffic pattern: leftleft
Runway heading: 135 magnetic, 122 true315 magnetic, 302 true
Runway end identifier lights: nono

Seaplane Base Ownership and Management from official FAA records

Ownership: Privately-owned
Owner: BREWER CAPRI MARINA
15 ORCHARD BEACH BLVD
PORT WASHINGTON, NY 11050
Manager: DAVID DOODY
BREWER CAPRI MARINA, 15 ORCHARD BEACH BLVD
PORT WASHINGTON, NY 11050
Phone 516-883-7800
AFTER HOURS PHONE 914-588-4664

Seaplane Base Operational Statistics

Aircraft operations: 50/year *
100% transient general aviation
* for 12-month period ending 26 September 2016

Additional Remarks

ALL LANDINGS TO BE MADE 2000' FROM SHORE UNLESS EMERGENCY.
NUMEROUS +60 FT SAILBOATS & MASTS
FOR CD CTC NEW YORK APCH AT 516-683-2849.

Instrument Procedures

There are no published instrument procedures at 7N3.

Some nearby airports with instrument procedures:

KLGA - LaGuardia Airport (8 nm SW)
KJFK - John F Kennedy International Airport (12 nm S)
6N5 - East 34th Street Heliport (13 nm SW)
KJRA - West 30th St Heliport (14 nm W)
KHPN - Westchester County Airport (14 nm N)
KFRG - Republic Airport (15 nm SE)
KJRB - Downtown Manhattan/Wall Street Heliport (15 nm SW)
KTEB - Teterboro Airport (16 nm W)
 
Loc | Ops | Rwys | IFR | FBO | Links
Com | Nav | Svcs | Stats | Notes

AirNav Hotels Sweepstakes
 
Area around 7N3 (Sands Point Seaplane Base)
 
Road maps at: MapQuest Bing Google
 
Aerial photo
No photo
 
Sectional chart

 
Airport distance calculator
Flying to Sands Point Seaplane Base? Find the distance to fly.

From to 7N3

Sunrise and sunset
Times for 26-May-2018
 Local
(UTC-4)
 Zulu
(UTC)
Morning civil twilight04:5708:57
Sunrise05:3009:30
Sunset20:1400:14
Evening civil twilight20:4600:46

Current date and time
Zulu (UTC)  26-May-2018 07:50:30
Local (UTC-4)  26-May-2018 03:50:30
 
METAR
KLGA 
8nm W 
260651Z 23009KT 10SM FEW250 24/17 A2982 RMK AO2 SLP098 T02440172
KNYC 
12nm W 
260651Z AUTO VRB05KT 10SM CLR 23/18 A2985 RMK AO2 SLP099 T02330178 $
KJFK 
12nm S 
260651Z 24007KT 10SM FEW250 20/18 A2984 RMK AO2 SLP105 T02000183
KHPN 
14nm N 
260656Z 26006KT 10SM CLR 23/17 A2982 RMK AO2 SLP091 T02280172
KFRG 
15nm E 
260653Z AUTO 25009KT 10SM CLR 21/17 A2983 RMK AO2 SLP101 T02060167
KJRB 
15nm SW 
260735Z 26006KT 10SM CLR 22/18 A2984 RMK AO2 SLP298 PWINO FZRANO RVRNO
KTEB 
15nm W 
260651Z 22004KT 10SM CLR 23/18 A2982 RMK AO2 SLP097 T02280183
TAF
KLGA 
8nm W 
260550Z 2606/2712 23009KT P6SM FEW250 FM261700 23009KT P6SM BKN070 FM261900 22010G19KT P6SM VCTS BKN060CB FM262300 23008KT P6SM -SHRA VCTS BKN050CB PROB30 2623/2701 4SM TS FM270600 VRB04KT 5SM -SHRA OVC060 FM271000 06008KT 6SM -RA OVC040 FM271100 06010KT 5SM -RA OVC025
KJFK 
12nm S 
260550Z 2606/2712 23008KT P6SM FEW250 FM261700 20011KT P6SM BKN070 FM261900 20012KT P6SM VCTS BKN070CB FM270000 20009KT P6SM -SHRA OVC050 PROB30 2700/2701 4SM TS OVC050CB FM270200 22007KT 6SM -SHRA VCTS BKN050CB FM270700 19005KT 5SM -SHRA OVC050 FM270800 VRB05KT 5SM -SHRA OVC045 FM271000 06006KT 5SM -RA OVC030
KHPN 
14nm N 
260550Z 2606/2706 24005KT P6SM FEW250 FM261400 27007KT P6SM FEW250 FM261800 25008KT P6SM BKN070 FM261900 24008KT P6SM VCTS BKN070CB FM270000 VRB04KT 6SM -SHRA VCTS BKN050CB PROB30 2700/2702 4SM TS AMD NOT SKED
KTEB 
15nm W 
260550Z 2606/2712 22006KT P6SM FEW250 FM261500 25006KT P6SM SCT080 FM261700 24008KT P6SM BKN070 FM261900 24008KT P6SM VCTS BKN060CB FM270000 25005KT P6SM -SHRA BKN050 PROB30 2700/2701 4SM TS OVC050CB FM270600 00000KT 5SM -SHRA OVC060 FM271100 05005KT 6SM -RA OVC025
NOTAMs
Click for the latest NOTAMs
NOTAMs are issued by the DoD/FAA and will open in a separate window not controlled by AirNav.

 

 
 

Would you like to see your business listed on this page?

 If your business provides an interesting product or service to pilots, flight crews, aircraft, or users of the Sands Point Seaplane Base, you should consider listing it here.  To start the listing process, click on the button below
 
Add a business
 

Other Pages about Sands Point Seaplane Base

Update a link
 
Copyright © AirNav, LLC. All rights reserved. Privacy Policy  Contact